Time;durP1;ratioP1;P1;durP2;ratioP2;P2;SDS_P1;SDS_P2;PMS_P1;PMS_P2;Temp;Humidity;BMP_temperature;BMP_pressure;BME280_temperature;BME280_humidity;BME280_pressure;Samples;Min_cycle;Max_cycle;Signal;HPM_P1;HPM_P2
2022/03/07 00:00:49;;;;;;;14.07;10.18;;;-2.60;99.90;;;;;;5052731;28;20025;-53
2022/03/07 00:03:15;;;;;;;16.00;9.80;;;-2.60;99.90;;;;;;5050908;28;20135;-52
2022/03/07 00:05:40;;;;;;;14.88;10.98;;;-2.60;99.90;;;;;;5051617;28;20025;-50
2022/03/07 00:08:06;;;;;;;14.38;11.00;;;-2.60;99.90;;;;;;5052682;28;20044;-52
2022/03/07 00:10:31;;;;;;;14.13;10.10;;;-2.70;99.90;;;;;;5051128;28;20052;-53
2022/03/07 00:12:57;;;;;;;13.43;10.30;;;-2.70;99.90;;;;;;5053183;28;20025;-50
2022/03/07 00:15:23;;;;;;;15.43;11.00;;;-2.70;99.90;;;;;;5062361;28;20090;-51
2022/03/07 00:17:48;;;;;;;14.05;11.27;;;-2.70;99.90;;;;;;5052182;28;20377;-52
2022/03/07 00:20:14;;;;;;;12.57;10.55;;;-2.70;99.90;;;;;;5071222;28;20058;-52
2022/03/07 00:22:40;;;;;;;20.48;12.15;;;-2.80;99.90;;;;;;5067910;28;20056;-50
2022/03/07 00:25:06;;;;;;;18.60;12.50;;;-2.80;99.90;;;;;;5060497;28;20043;-51
2022/03/07 00:27:31;;;;;;;19.23;12.25;;;-2.80;99.90;;;;;;5071137;28;20551;-52
2022/03/07 00:29:57;;;;;;;20.42;13.65;;;-2.80;99.90;;;;;;5052932;28;20127;-54
2022/03/07 00:32:22;;;;;;;20.58;13.48;;;-2.80;99.90;;;;;;5076474;28;20043;-51
2022/03/07 00:34:48;;;;;;;22.02;14.35;;;-2.80;99.90;;;;;;5082875;28;20067;-49
2022/03/07 00:37:14;;;;;;;21.23;14.23;;;-2.90;99.90;;;;;;5071186;28;20028;-53
2022/03/07 00:39:40;;;;;;;27.33;16.00;;;-2.90;99.90;;;;;;5083311;28;20708;-55
2022/03/07 00:42:06;;;;;;;23.08;15.20;;;-2.90;99.90;;;;;;5074374;28;20100;-56
2022/03/07 00:44:31;;;;;;;28.00;15.23;;;-2.90;99.90;;;;;;5083030;28;20031;-52
2022/03/07 00:46:57;;;;;;;28.52;15.48;;;-2.90;99.90;;;;;;5073295;28;20088;-53
2022/03/07 00:49:22;;;;;;;24.88;15.15;;;-3.00;99.90;;;;;;5070577;28;20032;-53
2022/03/07 00:51:48;;;;;;;26.83;16.55;;;-3.00;99.90;;;;;;5070538;28;20534;-52
2022/03/07 00:54:13;;;;;;;21.50;14.75;;;-3.00;99.90;;;;;;5071266;28;20052;-53
2022/03/07 00:56:39;;;;;;;26.05;15.30;;;-3.00;99.90;;;;;;5070292;28;20089;-50
2022/03/07 00:59:05;;;;;;;18.88;14.25;;;-3.00;99.90;;;;;;5070479;28;20033;-53
2022/03/07 01:01:30;;;;;;;21.15;14.68;;;-3.00;99.90;;;;;;5071342;28;20033;-52
2022/03/07 01:03:56;;;;;;;20.20;13.82;;;-3.00;99.90;;;;;;5069904;28;20076;-51
2022/03/07 01:06:22;;;;;;;22.67;14.75;;;-3.10;99.90;;;;;;5076833;28;20035;-55
2022/03/07 01:08:48;;;;;;;24.63;14.32;;;-3.10;99.90;;;;;;5072044;28;20037;-51
2022/03/07 01:11:13;;;;;;;23.65;14.02;;;-3.10;99.90;;;;;;5075007;28;20032;-51
2022/03/07 01:13:39;;;;;;;23.67;14.70;;;-3.10;99.90;;;;;;5070619;28;20044;-51
2022/03/07 01:16:04;;;;;;;21.50;14.10;;;-3.10;99.90;;;;;;5077276;28;20028;-50
2022/03/07 01:18:30;;;;;;;21.02;14.73;;;-3.10;99.90;;;;;;5090001;28;20035;-50
2022/03/07 01:20:56;;;;;;;20.48;12.95;;;-3.10;99.90;;;;;;5089947;28;20032;-50
2022/03/07 01:23:21;;;;;;;19.05;13.77;;;-3.10;99.90;;;;;;5089869;28;20416;-52
2022/03/07 01:25:47;;;;;;;20.33;13.18;;;-3.10;99.90;;;;;;5090346;28;20032;-50
2022/03/07 01:28:12;;;;;;;25.40;14.02;;;-3.10;99.90;;;;;;5075694;28;20047;-52
2022/03/07 01:30:38;;;;;;;20.55;13.75;;;-3.10;99.90;;;;;;5069488;28;20078;-50
2022/03/07 01:33:04;;;;;;;23.27;13.98;;;-3.20;99.90;;;;;;5070048;28;20036;-50
2022/03/07 01:35:29;;;;;;;16.58;12.02;;;-3.20;99.90;;;;;;5081722;28;20578;-50
2022/03/07 01:37:55;;;;;;;22.98;13.70;;;-3.20;99.90;;;;;;5069685;28;20403;-51
2022/03/07 01:40:20;;;;;;;20.58;13.73;;;-3.20;99.90;;;;;;5069262;28;20078;-53
2022/03/07 01:42:46;;;;;;;19.65;13.20;;;-3.20;99.90;;;;;;5070405;28;20074;-53
2022/03/07 01:45:14;;;;;;;18.52;12.55;;;-3.20;99.90;;;;;;5070148;28;20040;-51
2022/03/07 01:47:40;;;;;;;18.60;12.75;;;-3.20;99.90;;;;;;5070455;28;20044;-52
2022/03/07 01:50:08;;;;;;;18.88;13.05;;;-3.10;99.90;;;;;;5069485;28;20031;-52
2022/03/07 01:52:38;;;;;;;22.02;13.98;;;-3.10;99.90;;;;;;5082643;28;20028;-52
2022/03/07 01:55:06;;;;;;;19.23;13.07;;;-3.10;99.90;;;;;;5084700;28;20024;-51
2022/03/07 01:57:35;;;;;;;17.13;12.15;;;-3.20;99.90;;;;;;5086820;28;20040;-52
2022/03/07 02:00:00;;;;;;;21.33;11.98;;;-3.20;99.90;;;;;;5086969;28;20431;-53
2022/03/07 02:02:26;;;;;;;17.85;12.15;;;-3.20;99.90;;;;;;5075429;28;20052;-50
2022/03/07 02:04:52;;;;;;;14.95;11.40;;;-3.20;99.90;;;;;;5067938;28;20063;-53
2022/03/07 02:07:18;;;;;;;14.82;11.13;;;-3.30;99.90;;;;;;5080219;28;20039;-53
2022/03/07 02:09:44;;;;;;;15.07;11.70;;;-3.30;99.90;;;;;;5089431;28;20028;-52
2022/03/07 02:12:09;;;;;;;18.10;13.20;;;-3.30;99.90;;;;;;5086722;28;20039;-52
2022/03/07 02:14:35;;;;;;;20.15;13.40;;;-3.40;99.90;;;;;;5088616;28;20039;-51
2022/03/07 02:17:01;;;;;;;23.48;14.65;;;-3.40;99.90;;;;;;5080526;28;20029;-50
2022/03/07 02:19:26;;;;;;;21.17;14.40;;;-3.40;99.90;;;;;;5048909;28;20416;-51
2022/03/07 02:22:00;;;;;;;18.70;13.15;;;-3.50;99.90;;;;;;5075370;28;20427;-51
2022/03/07 02:24:26;;;;;;;18.75;13.18;;;-3.50;99.90;;;;;;5081067;28;20025;-49
2022/03/07 02:27:11;;;;;;;19.65;12.50;;;-3.50;99.90;;;;;;5083601;28;20506;-51
2022/03/07 02:29:38;;;;;;;16.25;11.38;;;-3.50;99.90;;;;;;5088419;28;20752;-52
2022/03/07 02:32:05;;;;;;;18.27;11.85;;;-3.60;99.90;;;;;;5087580;28;20043;-54
2022/03/07 02:34:31;;;;;;;20.23;13.02;;;-3.60;99.90;;;;;;5088705;28;20059;-53
2022/03/07 02:36:57;;;;;;;19.13;11.93;;;-3.60;99.90;;;;;;5088920;28;20109;-51
2022/03/07 02:39:23;;;;;;;17.67;11.95;;;-3.60;99.90;;;;;;5075566;28;20111;-54
2022/03/07 02:41:48;;;;;;;17.88;12.45;;;-3.60;99.90;;;;;;5068867;28;20125;-51
2022/03/07 02:44:14;;;;;;;15.95;12.13;;;-3.60;99.90;;;;;;5080708;28;20484;-51
2022/03/07 02:46:41;;;;;;;17.55;11.82;;;-3.70;99.90;;;;;;5068660;28;20468;-51
2022/03/07 02:49:07;;;;;;;14.63;11.60;;;-3.70;99.90;;;;;;5068636;28;20024;-51
2022/03/07 02:51:33;;;;;;;19.48;12.82;;;-3.70;99.90;;;;;;5068084;28;20048;-51
2022/03/07 02:53:59;;;;;;;17.05;12.15;;;-3.70;99.90;;;;;;5067549;28;20029;-49
2022/03/07 02:56:24;;;;;;;17.52;12.90;;;-3.70;99.90;;;;;;5069390;28;20028;-53
2022/03/07 02:58:50;;;;;;;16.88;12.60;;;-3.80;99.90;;;;;;5068428;28;20036;-49
2022/03/07 03:01:16;;;;;;;16.25;12.00;;;-3.80;99.90;;;;;;5068260;28;20036;-53
2022/03/07 03:03:41;;;;;;;18.85;11.65;;;-3.80;99.90;;;;;;5068137;28;20649;-55
2022/03/07 03:06:08;;;;;;;15.05;10.73;;;-3.80;99.90;;;;;;5069088;28;20044;-50
2022/03/07 03:08:34;;;;;;;19.05;11.73;;;-3.80;99.90;;;;;;5069377;28;20115;-52
2022/03/07 03:11:01;;;;;;;17.35;12.15;;;-3.80;99.90;;;;;;5073456;28;20467;-50
2022/03/07 03:13:27;;;;;;;22.55;13.73;;;-3.80;99.90;;;;;;5072256;28;20241;-50
2022/03/07 03:15:54;;;;;;;16.75;12.77;;;-3.80;99.90;;;;;;5072375;28;20032;-49
2022/03/07 03:18:20;;;;;;;17.13;11.82;;;-3.80;99.90;;;;;;5074382;28;20811;-53
2022/03/07 03:20:49;;;;;;;17.77;12.82;;;-3.80;99.90;;;;;;5079938;28;20492;-51
2022/03/07 03:23:15;;;;;;;19.02;12.38;;;-3.80;99.90;;;;;;5071842;28;20486;-49
2022/03/07 03:25:40;;;;;;;21.17;12.57;;;-3.80;99.90;;;;;;5091690;28;20422;-51
2022/03/07 03:28:06;;;;;;;15.88;11.40;;;-3.80;99.90;;;;;;5076298;28;20112;-52
2022/03/07 03:30:32;;;;;;;16.92;11.55;;;-3.90;99.90;;;;;;5071649;28;20064;-50
2022/03/07 03:32:58;;;;;;;19.92;13.35;;;-3.90;99.90;;;;;;5081207;28;20103;-50
2022/03/07 03:35:23;;;;;;;18.20;11.90;;;-3.90;99.90;;;;;;5091790;28;20035;-54
2022/03/07 03:37:49;;;;;;;16.08;11.75;;;-3.90;99.90;;;;;;5091568;28;20431;-49
2022/03/07 03:40:15;;;;;;;16.90;11.60;;;-3.90;99.90;;;;;;5090394;28;20535;-50
2022/03/07 03:42:40;;;;;;;18.10;12.07;;;-3.90;99.90;;;;;;5091466;28;20060;-53
2022/03/07 03:45:10;;;;;;;14.02;10.75;;;-3.90;99.90;;;;;;5091442;28;20051;-51
2022/03/07 03:47:40;;;;;;;15.55;11.68;;;-4.00;99.90;;;;;;5073671;28;20024;-51
2022/03/07 03:50:08;;;;;;;16.42;11.52;;;-4.00;99.90;;;;;;5090179;28;20523;-52
2022/03/07 03:52:34;;;;;;;15.10;11.18;;;-4.00;99.90;;;;;;5091229;28;20506;-50
2022/03/07 03:55:02;;;;;;;17.52;12.38;;;-4.00;99.90;;;;;;5091433;28;20077;-47
2022/03/07 03:57:28;;;;;;;18.38;11.65;;;-4.00;99.90;;;;;;5091830;28;20035;-53
2022/03/07 03:59:54;;;;;;;17.05;11.43;;;-4.00;99.90;;;;;;5073540;28;20060;-48
2022/03/07 04:02:20;;;;;;;16.08;11.75;;;-4.00;99.90;;;;;;5083962;28;20112;-50
2022/03/07 04:04:45;;;;;;;18.73;12.25;;;-4.00;99.90;;;;;;5071256;28;20480;-52
2022/03/07 04:07:11;;;;;;;19.98;12.80;;;-4.00;99.90;;;;;;5071193;28;20033;-52
2022/03/07 04:09:36;;;;;;;17.70;11.68;;;-4.00;99.90;;;;;;5072191;28;20036;-49
2022/03/07 04:12:02;;;;;;;17.10;12.48;;;-3.90;99.90;;;;;;5071001;28;20035;-53
2022/03/07 04:14:28;;;;;;;17.45;12.18;;;-3.90;99.90;;;;;;5070668;28;20629;-48
2022/03/07 04:16:54;;;;;;;17.00;11.00;;;-3.90;99.90;;;;;;5071200;28;20060;-49
2022/03/07 04:19:20;;;;;;;16.58;11.68;;;-3.90;99.90;;;;;;5070957;28;20024;-48
2022/03/07 04:21:45;;;;;;;19.42;13.20;;;-3.90;99.90;;;;;;5070992;28;20035;-49
2022/03/07 04:24:12;;;;;;;21.08;12.45;;;-3.90;99.90;;;;;;5080163;28;20551;-49
2022/03/07 04:26:42;;;;;;;15.07;11.82;;;-3.90;99.90;;;;;;5075996;28;20028;-52
2022/03/07 04:29:08;;;;;;;17.85;11.98;;;-3.90;99.90;;;;;;5070832;28;20566;-53
2022/03/07 04:31:38;;;;;;;17.88;11.95;;;-3.90;99.90;;;;;;5084979;28;20032;-51
2022/03/07 04:34:06;;;;;;;20.83;12.13;;;-3.90;99.90;;;;;;5088571;28;20024;-50
2022/03/07 04:36:33;;;;;;;16.05;12.13;;;-3.90;99.90;;;;;;5089598;28;20101;-52
2022/03/07 04:38:58;;;;;;;18.48;12.05;;;-4.00;99.90;;;;;;5071269;28;20083;-51
2022/03/07 04:41:24;;;;;;;14.57;11.05;;;-4.00;99.90;;;;;;5071760;28;20573;-50
2022/03/07 04:43:50;;;;;;;20.08;13.20;;;-4.00;99.90;;;;;;5081338;28;20425;-50
2022/03/07 04:46:16;;;;;;;19.90;12.85;;;-4.00;99.90;;;;;;5074466;28;20031;-49
2022/03/07 04:48:41;;;;;;;15.82;11.10;;;-4.00;99.90;;;;;;5090394;28;20043;-52
2022/03/07 04:51:07;;;;;;;15.75;12.02;;;-4.00;99.90;;;;;;5082928;28;20032;-49
2022/03/07 04:53:32;;;;;;;17.10;12.02;;;-4.00;99.90;;;;;;5069999;28;20087;-49
2022/03/07 04:55:58;;;;;;;17.67;12.18;;;-4.00;99.90;;;;;;5087746;28;20020;-51
2022/03/07 04:58:24;;;;;;;15.77;11.30;;;-4.00;99.90;;;;;;5090388;28;20569;-54
2022/03/07 05:00:54;;;;;;;17.48;12.20;;;-4.00;99.90;;;;;;5089629;28;20028;-52
2022/03/07 05:03:23;;;;;;;15.45;11.68;;;-4.10;99.90;;;;;;5089593;28;20024;-48
2022/03/07 05:05:49;;;;;;;19.85;12.57;;;-4.10;99.90;;;;;;5073939;28;20504;-50
2022/03/07 05:08:15;;;;;;;15.52;12.02;;;-4.10;99.90;;;;;;5069915;28;20107;-49
2022/03/07 05:10:41;;;;;;;16.55;11.15;;;-4.10;99.90;;;;;;5069833;28;20086;-50
2022/03/07 05:13:06;;;;;;;16.17;11.35;;;-4.10;99.90;;;;;;5089483;28;20438;-51
2022/03/07 05:15:32;;;;;;;20.60;12.85;;;-4.10;99.90;;;;;;5089417;28;20089;-52
2022/03/07 05:17:58;;;;;;;17.85;12.27;;;-4.10;99.90;;;;;;5086563;28;20021;-50
2022/03/07 05:20:25;;;;;;;15.75;11.68;;;-4.00;99.90;;;;;;5081065;28;20032;-50
2022/03/07 05:22:52;;;;;;;15.85;12.10;;;-4.10;99.90;;;;;;5089165;28;20124;-49
2022/03/07 05:25:18;;;;;;;15.20;11.30;;;-4.00;99.90;;;;;;5087795;28;20032;-52
2022/03/07 05:27:44;;;;;;;14.52;11.05;;;-4.10;99.90;;;;;;5070813;28;20029;-50
2022/03/07 05:30:16;;;;;;;15.27;10.85;;;-4.10;99.90;;;;;;5052820;28;20028;-52
2022/03/07 05:32:43;;;;;;;68.68;18.00;;;-4.10;99.90;;;;;;5089039;28;20024;-53
2022/03/07 05:35:10;;;;;;;81.65;23.45;;;-4.10;99.90;;;;;;5089727;28;20027;-50
2022/03/07 05:37:36;;;;;;;70.90;21.77;;;-4.10;99.90;;;;;;5089342;28;20150;-49
2022/03/07 05:40:02;;;;;;;49.17;18.13;;;-4.10;99.90;;;;;;5064376;28;20032;-51
2022/03/07 05:42:28;;;;;;;50.78;18.55;;;-4.10;99.90;;;;;;5088061;28;20502;-49
2022/03/07 05:44:53;;;;;;;43.70;15.77;;;-4.10;99.90;;;;;;5070124;28;20064;-50
2022/03/07 05:47:19;;;;;;;40.17;15.63;;;-4.10;99.90;;;;;;5080447;28;20051;-52
2022/03/07 05:49:44;;;;;;;26.30;13.52;;;-4.10;99.90;;;;;;5070918;28;20471;-53
2022/03/07 05:52:10;;;;;;;19.13;12.40;;;-4.10;99.90;;;;;;5069245;28;20024;-52
2022/03/07 05:54:36;;;;;;;21.35;12.85;;;-4.10;99.90;;;;;;5077631;28;20036;-51
2022/03/07 05:57:01;;;;;;;18.77;11.82;;;-4.20;99.90;;;;;;5088943;28;20089;-50
2022/03/07 05:59:27;;;;;;;16.20;11.80;;;-4.20;99.90;;;;;;5089029;28;20032;-50
2022/03/07 06:01:52;;;;;;;19.00;11.52;;;-4.10;99.90;;;;;;5075193;28;20103;-50
2022/03/07 06:04:18;;;;;;;17.20;12.55;;;-4.10;99.90;;;;;;5068983;28;20096;-50
2022/03/07 06:06:44;;;;;;;15.82;11.68;;;-4.10;99.90;;;;;;5069096;28;20025;-52
2022/03/07 06:09:09;;;;;;;17.75;11.85;;;-4.10;99.90;;;;;;5066282;28;20028;-52
2022/03/07 06:11:35;;;;;;;17.35;12.35;;;-4.10;99.90;;;;;;5087495;28;20028;-51
2022/03/07 06:14:00;;;;;;;19.63;13.18;;;-4.00;99.90;;;;;;5088507;28;20035;-50
2022/03/07 06:16:26;;;;;;;16.52;11.95;;;-4.00;99.90;;;;;;5075941;28;20400;-53
2022/03/07 06:18:52;;;;;;;15.32;11.55;;;-4.00;99.90;;;;;;5050951;28;20055;-53
2022/03/07 06:21:17;;;;;;;19.88;13.25;;;-4.10;99.90;;;;;;5053968;28;20459;-51
2022/03/07 06:23:43;;;;;;;15.20;12.13;;;-4.00;99.90;;;;;;5088827;28;20043;-53
2022/03/07 06:26:09;;;;;;;14.00;11.32;;;-4.10;99.90;;;;;;5075224;28;20036;-54
2022/03/07 06:28:34;;;;;;;16.35;12.77;;;-4.10;99.90;;;;;;5069002;28;20127;-56
2022/03/07 06:31:00;;;;;;;20.38;12.73;;;-4.10;99.90;;;;;;5070279;28;20028;-51
2022/03/07 06:33:26;;;;;;;19.75;12.93;;;-4.10;99.90;;;;;;5068688;28;20441;-52
2022/03/07 06:35:52;;;;;;;19.10;13.95;;;-4.10;99.90;;;;;;5078878;28;20053;-50
2022/03/07 06:38:19;;;;;;;16.60;12.38;;;-4.10;99.90;;;;;;5088841;28;20028;-53
2022/03/07 06:40:45;;;;;;;14.68;12.40;;;-4.10;99.90;;;;;;5086454;28;20028;-52
2022/03/07 06:43:11;;;;;;;19.20;12.70;;;-4.10;99.90;;;;;;5069137;28;20040;-52
2022/03/07 06:45:36;;;;;;;17.17;12.45;;;-4.10;99.90;;;;;;5084067;28;20484;-50
2022/03/07 06:48:02;;;;;;;18.20;13.35;;;-4.10;99.90;;;;;;5072819;28;20133;-52
2022/03/07 06:50:28;;;;;;;19.48;13.45;;;-4.10;99.90;;;;;;5088315;28;20036;-51
2022/03/07 06:52:54;;;;;;;18.63;13.20;;;-4.10;99.90;;;;;;5072187;28;20060;-52
2022/03/07 06:55:19;;;;;;;17.40;12.55;;;-4.10;99.90;;;;;;5077070;28;20062;-50
2022/03/07 06:57:45;;;;;;;17.15;12.60;;;-4.00;99.90;;;;;;5084825;28;20032;-52
2022/03/07 07:00:13;;;;;;;17.08;12.73;;;-4.10;99.90;;;;;;5080331;28;20028;-51
2022/03/07 07:02:39;;;;;;;17.75;12.68;;;-4.00;99.90;;;;;;5086459;28;20484;-51
2022/03/07 07:05:06;;;;;;;16.52;12.75;;;-4.00;99.90;;;;;;5074551;28;20024;-51
2022/03/07 07:07:31;;;;;;;15.88;11.98;;;-3.90;99.90;;;;;;5092268;28;20043;-49
2022/03/07 07:09:57;;;;;;;19.05;13.35;;;-3.90;99.90;;;;;;5074537;28;20400;-49
2022/03/07 07:12:23;;;;;;;17.70;13.32;;;-3.90;99.90;;;;;;5077846;28;20021;-50
2022/03/07 07:14:49;;;;;;;19.02;14.05;;;-3.80;99.90;;;;;;5072021;28;20112;-52
2022/03/07 07:17:16;;;;;;;18.10;14.32;;;-3.80;99.90;;;;;;5085565;28;20024;-46
2022/03/07 07:19:41;;;;;;;23.40;14.90;;;-3.70;99.90;;;;;;5077930;28;20036;-50
2022/03/07 07:22:07;;;;;;;19.17;14.15;;;-3.60;99.90;;;;;;5072624;28;20399;-52
2022/03/07 07:24:33;;;;;;;20.10;14.70;;;-3.60;99.90;;;;;;5081469;28;20020;-50
2022/03/07 07:26:59;;;;;;;16.02;12.77;;;-3.50;99.90;;;;;;5076173;28;20518;-51
2022/03/07 07:29:24;;;;;;;19.30;14.10;;;-3.40;99.90;;;;;;5072142;28;20025;-53
2022/03/07 07:31:51;;;;;;;20.13;14.18;;;-3.30;99.90;;;;;;5073073;28;20044;-51
2022/03/07 07:34:18;;;;;;;21.58;13.13;;;-3.20;99.90;;;;;;5071609;28;20021;-50
2022/03/07 07:36:43;;;;;;;17.63;12.68;;;-3.10;99.90;;;;;;5072091;28;20032;-52
2022/03/07 07:39:09;;;;;;;15.55;12.70;;;-3.00;99.90;;;;;;5072362;28;20028;-49
2022/03/07 07:41:35;;;;;;;18.13;12.93;;;-2.90;99.90;;;;;;5071808;28;20024;-51
2022/03/07 07:44:01;;;;;;;17.23;13.45;;;-2.70;99.90;;;;;;5053833;28;20043;-50
2022/03/07 07:46:27;;;;;;;16.52;12.73;;;-2.60;99.90;;;;;;5070910;28;20714;-51
2022/03/07 07:48:52;;;;;;;18.42;12.82;;;-2.30;99.90;;;;;;5071565;28;20040;-50
2022/03/07 07:51:18;;;;;;;19.10;14.10;;;-2.00;99.90;;;;;;5072047;28;20032;-50
2022/03/07 07:53:43;;;;;;;18.00;13.55;;;-1.70;99.90;;;;;;5053373;28;20477;-50
2022/03/07 07:56:09;;;;;;;19.05;12.93;;;-1.50;99.90;;;;;;5071166;28;20029;-53
2022/03/07 07:58:35;;;;;;;17.35;13.02;;;-1.30;99.90;;;;;;5052496;28;20068;-49
2022/03/07 08:01:00;;;;;;;18.92;13.75;;;-1.10;99.90;;;;;;5059999;28;20030;-53
2022/03/07 08:03:26;;;;;;;17.35;13.13;;;-0.90;99.90;;;;;;5050936;28;20021;-50
2022/03/07 08:05:52;;;;;;;17.33;13.40;;;-0.80;99.90;;;;;;5062669;28;20510;-51
2022/03/07 08:08:18;;;;;;;18.42;13.00;;;-0.60;99.90;;;;;;5071452;28;20551;-55
2022/03/07 08:10:43;;;;;;;16.88;12.25;;;-0.40;99.90;;;;;;5070082;28;20124;-51
2022/03/07 08:13:09;;;;;;;19.00;12.93;;;-0.30;99.90;;;;;;5071128;28;20066;-50
2022/03/07 08:15:35;;;;;;;16.30;12.80;;;-0.10;99.90;;;;;;5052918;28;20400;-51
2022/03/07 08:18:01;;;;;;;14.77;12.23;;;0.10;99.90;;;;;;5071029;28;20548;-53
2022/03/07 08:20:29;;;;;;;14.82;11.30;;;0.20;99.90;;;;;;5071121;28;20029;-50
2022/03/07 08:22:56;;;;;;;16.83;11.55;;;0.40;99.90;;;;;;5070477;28;20033;-50
2022/03/07 08:25:22;;;;;;;11.60;9.98;;;0.60;99.90;;;;;;5071253;28;20135;-52
2022/03/07 08:27:49;;;;;;;13.82;9.93;;;0.80;99.90;;;;;;5043476;28;20059;-52
2022/03/07 08:30:16;;;;;;;11.85;9.43;;;1.10;99.90;;;;;;5051284;28;20037;-52
2022/03/07 08:32:41;;;;;;;11.02;8.75;;;1.30;99.90;;;;;;5059872;28;20032;-50
2022/03/07 08:35:09;;;;;;;10.13;8.20;;;1.50;99.90;;;;;;5070117;28;20066;-52
2022/03/07 08:37:35;;;;;;;8.82;7.38;;;1.80;99.90;;;;;;5070948;28;20546;-50
2022/03/07 08:40:02;;;;;;;10.73;6.30;;;2.00;99.90;;;;;;5073509;28;20024;-53
2022/03/07 08:42:27;;;;;;;7.63;6.43;;;2.20;99.90;;;;;;5090302;28;20036;-55
2022/03/07 08:44:53;;;;;;;8.80;5.90;;;2.40;99.90;;;;;;5090506;28;20596;-51
2022/03/07 08:47:19;;;;;;;7.82;5.03;;;2.70;99.90;;;;;;5090114;28;20024;-51
2022/03/07 08:49:45;;;;;;;5.38;4.32;;;2.90;99.90;;;;;;5090586;28;20032;-53
2022/03/07 08:52:10;;;;;;;11.50;5.45;;;3.00;99.90;;;;;;5090554;28;20065;-52
2022/03/07 08:54:36;;;;;;;5.90;4.43;;;3.20;99.90;;;;;;5090900;28;20054;-52
2022/03/07 08:57:03;;;;;;;5.30;3.90;;;3.30;99.90;;;;;;5070937;28;20071;-55
2022/03/07 08:59:28;;;;;;;5.57;4.38;;;3.50;99.90;;;;;;5080863;28;20028;-54
2022/03/07 09:01:57;;;;;;;4.68;3.80;;;3.70;99.90;;;;;;5090211;28;20024;-50
2022/03/07 09:04:24;;;;;;;3.88;3.05;;;3.90;99.90;;;;;;5090184;28;20027;-56
2022/03/07 09:06:51;;;;;;;4.03;3.03;;;4.00;99.90;;;;;;5080178;28;20048;-51
2022/03/07 09:09:17;;;;;;;4.63;3.28;;;4.20;99.90;;;;;;5059759;28;20059;-51
2022/03/07 09:11:43;;;;;;;4.07;3.22;;;4.30;99.90;;;;;;5051947;28;20682;-52
2022/03/07 09:14:08;;;;;;;4.80;3.42;;;4.50;99.90;;;;;;5069822;28;20029;-56
2022/03/07 09:16:34;;;;;;;6.45;3.97;;;4.60;99.90;;;;;;5069888;28;20036;-53
2022/03/07 09:19:00;;;;;;;4.45;2.95;;;4.70;99.90;;;;;;5070166;28;20048;-53
2022/03/07 09:21:25;;;;;;;3.15;2.63;;;4.90;99.90;;;;;;5051707;28;20452;-54
2022/03/07 09:23:51;;;;;;;5.35;3.30;;;4.90;99.90;;;;;;5070130;28;20040;-54
2022/03/07 09:26:18;;;;;;;3.78;2.97;;;5.00;99.90;;;;;;5068399;28;20028;-55
2022/03/07 09:28:43;;;;;;;3.28;2.97;;;5.10;99.90;;;;;;5085759;28;20504;-51
2022/03/07 09:31:09;;;;;;;4.00;3.08;;;5.20;99.90;;;;;;5089987;28;20058;-55
2022/03/07 09:33:35;;;;;;;4.40;3.03;;;5.40;99.90;;;;;;5089816;28;20109;-50
2022/03/07 09:36:02;;;;;;;3.30;2.90;;;5.50;99.90;;;;;;5090412;28;20024;-52
2022/03/07 09:38:28;;;;;;;4.55;3.55;;;5.70;99.90;;;;;;5090071;28;20055;-56
2022/03/07 09:40:55;;;;;;;4.15;3.10;;;5.80;99.90;;;;;;5089975;28;20491;-52
2022/03/07 09:43:21;;;;;;;4.20;2.88;;;6.00;99.90;;;;;;5089532;28;20038;-55
2022/03/07 09:45:47;;;;;;;5.20;2.88;;;6.10;99.90;;;;;;5089526;28;20099;-53
2022/03/07 09:48:13;;;;;;;3.72;3.03;;;6.10;99.90;;;;;;5089566;28;20035;-53
2022/03/07 09:50:42;;;;;;;4.65;2.97;;;6.10;99.90;;;;;;5089662;28;20031;-52
2022/03/07 09:53:08;;;;;;;4.47;3.30;;;6.10;99.90;;;;;;5089548;28;20046;-55
2022/03/07 09:55:36;;;;;;;4.78;3.30;;;6.10;99.90;;;;;;5089670;28;20049;-53
2022/03/07 09:58:02;;;;;;;3.10;2.67;;;6.10;99.90;;;;;;5089631;28;20035;-55
2022/03/07 10:00:27;;;;;;;4.15;3.30;;;6.00;99.90;;;;;;5089492;28;20529;-56
2022/03/07 10:02:59;;;;;;;5.38;2.50;;;6.10;99.90;;;;;;5089018;28;20044;-55
2022/03/07 10:05:29;;;;;;;4.43;3.30;;;6.20;99.90;;;;;;5089315;28;20046;-54
2022/03/07 10:07:55;;;;;;;4.65;2.67;;;6.20;99.90;;;;;;5089670;28;20063;-53
2022/03/07 10:10:22;;;;;;;3.47;3.00;;;6.30;99.90;;;;;;5089642;28;20202;-52
2022/03/07 10:12:51;;;;;;;3.15;2.60;;;6.40;99.90;;;;;;5089557;28;20016;-53
2022/03/07 10:15:22;;;;;;;3.55;3.03;;;6.40;99.90;;;;;;5089368;28;20028;-52
2022/03/07 10:17:53;;;;;;;4.05;2.50;;;6.40;99.90;;;;;;5089109;28;20046;-51
2022/03/07 10:20:21;;;;;;;2.95;2.42;;;6.40;99.90;;;;;;5089618;28;20106;-54
2022/03/07 10:22:50;;;;;;;3.03;2.20;;;6.40;99.90;;;;;;5088943;28;20085;-53
2022/03/07 10:25:21;;;;;;;2.50;2.30;;;6.50;99.90;;;;;;5089392;28;20028;-50
2022/03/07 10:27:49;;;;;;;4.55;2.72;;;6.60;99.90;;;;;;5089388;28;20020;-54
2022/03/07 10:30:24;;;;;;;3.17;2.40;;;6.70;99.90;;;;;;5089123;28;20127;-51
2022/03/07 10:32:58;;;;;;;2.53;1.92;;;6.80;99.90;;;;;;5089158;28;20057;-52
2022/03/07 10:35:23;;;;;;;2.92;2.25;;;6.80;99.90;;;;;;5089530;28;20016;-53
2022/03/07 10:37:49;;;;;;;4.07;2.28;;;6.80;99.90;;;;;;5088993;28;20258;-50
2022/03/07 10:40:21;;;;;;;2.97;2.65;;;6.80;99.90;;;;;;5083014;28;20032;-55
2022/03/07 10:42:48;;;;;;;2.53;2.33;;;6.90;99.90;;;;;;5068215;28;20082;-53
2022/03/07 10:45:14;;;;;;;4.93;2.85;;;7.00;99.90;;;;;;5068988;28;20028;-52
2022/03/07 10:47:41;;;;;;;3.22;2.22;;;7.00;99.90;;;;;;5050994;28;20028;-56
2022/03/07 10:50:08;;;;;;;3.13;2.53;;;6.90;99.90;;;;;;5069547;28;20029;-57
2022/03/07 10:52:44;;;;;;;3.35;2.70;;;6.90;99.90;;;;;;5068669;28;20109;-54
2022/03/07 10:55:11;;;;;;;2.63;1.92;;;7.00;99.90;;;;;;5068839;28;20082;-54
2022/03/07 10:57:39;;;;;;;2.13;1.70;;;7.00;99.30;;;;;;5068551;28;20029;-54
2022/03/07 11:00:11;;;;;;;4.43;1.60;;;6.90;97.50;;;;;;5069012;28;20102;-55
2022/03/07 11:02:41;;;;;;;1.50;1.40;;;6.90;96.00;;;;;;5068806;28;20031;-55
2022/03/07 11:05:07;;;;;;;3.13;1.98;;;6.90;94.20;;;;;;5068850;28;20023;-57
2022/03/07 11:07:41;;;;;;;2.42;2.13;;;6.90;95.80;;;;;;5068692;28;20048;-56
2022/03/07 11:10:10;;;;;;;1.90;1.70;;;7.00;96.60;;;;;;5068483;28;20075;-53
2022/03/07 11:12:36;;;;;;;4.38;1.98;;;6.90;97.00;;;;;;5068133;28;20023;-55
2022/03/07 11:15:08;;;;;;;3.83;2.17;;;7.10;98.30;;;;;;5068438;28;20403;-55
2022/03/07 11:17:39;;;;;;;4.97;2.53;;;7.20;98.70;;;;;;5068645;28;20027;-56
2022/03/07 11:20:06;;;;;;;3.42;2.03;;;7.20;97.80;;;;;;5068653;28;20024;-55
2022/03/07 11:22:32;;;;;;;4.07;2.17;;;7.20;98.10;;;;;;5068214;28;20524;-51
2022/03/07 11:24:58;;;;;;;3.50;2.03;;;7.30;99.40;;;;;;5068495;28;20032;-53
2022/03/07 11:27:24;;;;;;;3.97;2.83;;;7.30;98.00;;;;;;5050860;28;20028;-55
2022/03/07 11:29:50;;;;;;;2.50;2.13;;;7.30;98.20;;;;;;5069457;28;20025;-54
2022/03/07 11:32:18;;;;;;;1.90;1.65;;;7.40;97.00;;;;;;5072253;28;20414;-54
2022/03/07 11:34:53;;;;;;;1.85;1.70;;;7.30;96.70;;;;;;5072267;28;20024;-56
2022/03/07 11:37:21;;;;;;;1.85;1.45;;;7.40;94.90;;;;;;5072280;28;20428;-55
2022/03/07 11:39:47;;;;;;;3.40;1.73;;;7.30;93.50;;;;;;5077553;28;20020;-55
2022/03/07 11:42:14;;;;;;;1.23;1.13;;;7.40;93.40;;;;;;5084109;28;20081;-55
2022/03/07 11:44:42;;;;;;;4.55;2.10;;;7.50;95.00;;;;;;5072091;28;20016;-54
2022/03/07 11:47:16;;;;;;;5.25;1.80;;;7.60;92.80;;;;;;5079197;28;20029;-55
2022/03/07 11:49:43;;;;;;;2.35;1.70;;;7.40;92.20;;;;;;5085857;28;20073;-54
2022/03/07 11:52:14;;;;;;;2.35;1.80;;;7.30;93.30;;;;;;5072655;28;20530;-53
2022/03/07 11:54:52;;;;;;;2.85;1.63;;;7.40;94.00;;;;;;5070607;28;20016;-53
2022/03/07 11:57:18;;;;;;;1.58;1.17;;;7.50;92.60;;;;;;5071891;28;20492;-54
2022/03/07 11:59:44;;;;;;;1.10;1.02;;;7.50;90.00;;;;;;5053951;28;20039;-54
2022/03/07 12:02:10;;;;;;;1.95;1.33;;;7.60;86.60;;;;;;5071336;28;20032;-53
2022/03/07 12:04:43;;;;;;;1.30;1.00;;;7.60;88.60;;;;;;5071750;28;20028;-52
2022/03/07 12:07:09;;;;;;;1.42;1.20;;;7.60;89.10;;;;;;5071793;28;20017;-53
2022/03/07 12:09:38;;;;;;;1.98;1.00;;;7.60;90.10;;;;;;5071527;28;20028;-53
2022/03/07 12:12:09;;;;;;;1.60;1.42;;;7.60;86.20;;;;;;5073665;28;20056;-53
2022/03/07 12:14:37;;;;;;;3.17;1.33;;;7.60;90.00;;;;;;5071954;28;20040;-53
2022/03/07 12:17:16;;;;;;;2.17;1.17;;;7.70;88.30;;;;;;5075055;28;20157;-52
2022/03/07 12:19:42;;;;;;;1.77;1.33;;;7.70;83.10;;;;;;5078240;28;20081;-56
2022/03/07 12:22:10;;;;;;;2.13;1.08;;;7.70;86.20;;;;;;5054774;28;20508;-56
2022/03/07 12:24:37;;;;;;;2.13;1.60;;;7.70;84.90;;;;;;5051301;28;20017;-52
2022/03/07 12:27:03;;;;;;;5.70;1.00;;;7.80;87.80;;;;;;5051412;28;20111;-52
2022/03/07 12:29:29;;;;;;;1.88;1.08;;;7.80;86.70;;;;;;5051153;28;20112;-55
2022/03/07 12:32:04;;;;;;;1.73;1.40;;;7.80;87.80;;;;;;5051059;28;20052;-53